createdAt,value
2023-11-05T00:01:53.774Z,1.30
2023-11-05T00:04:21.364Z,1.43
2023-11-05T00:06:51.526Z,1.20
2023-11-05T00:09:24.313Z,1.20
2023-11-05T00:11:53.232Z,1.40
2023-11-05T00:14:20.038Z,1.67
2023-11-05T00:16:49.744Z,1.30
2023-11-05T00:19:16.712Z,1.30
2023-11-05T00:21:44.773Z,1.53
2023-11-05T00:24:11.892Z,1.30
2023-11-05T00:26:38.710Z,1.33
2023-11-05T00:29:15.982Z,1.50
2023-11-05T00:31:53.846Z,1.37
2023-11-05T00:34:25.988Z,1.43
2023-11-05T00:36:52.769Z,1.43
2023-11-05T00:39:27.423Z,1.27
2023-11-05T00:41:54.159Z,1.23
2023-11-05T00:44:21.302Z,1.30
2023-11-05T00:46:48.249Z,1.50
2023-11-05T00:49:23.865Z,1.57
2023-11-05T00:51:50.658Z,1.50
2023-11-05T00:54:17.588Z,1.40
2023-11-05T00:56:44.386Z,1.40
2023-11-05T00:59:20.352Z,1.50
2023-11-05T01:01:47.177Z,1.50
2023-11-05T01:04:14.055Z,1.50
2023-11-05T01:06:46.586Z,1.50
2023-11-05T01:09:13.341Z,1.40
2023-11-05T01:11:41.465Z,1.27
2023-11-05T01:14:08.160Z,1.27
2023-11-05T01:16:42.338Z,1.30
2023-11-05T01:19:09.041Z,1.33
2023-11-05T01:21:35.797Z,1.60
2023-11-05T01:24:02.540Z,1.30
2023-11-05T01:26:38.549Z,1.30
2023-11-05T01:29:05.365Z,1.53
2023-11-05T01:31:32.158Z,1.77
2023-11-05T01:34:06.596Z,1.40
2023-11-05T01:36:34.082Z,1.40
2023-11-05T01:39:02.164Z,1.30
2023-11-05T01:41:36.641Z,1.30
2023-11-05T01:44:03.580Z,1.60
2023-11-05T01:46:33.708Z,1.43
2023-11-05T01:49:08.927Z,1.50
2023-11-05T01:51:39.895Z,1.50
2023-11-05T01:54:07.127Z,1.40
2023-11-05T01:56:41.491Z,1.30
2023-11-05T01:59:08.739Z,1.30
2023-11-05T02:01:35.639Z,1.40
2023-11-05T02:04:09.822Z,1.40
2023-11-05T02:06:36.628Z,1.40
2023-11-05T02:09:04.925Z,1.37
2023-11-05T02:11:31.631Z,1.50
2023-11-05T02:13:59.966Z,1.40
2023-11-05T02:16:33.009Z,1.50
2023-11-05T02:19:00.768Z,1.10
2023-11-05T02:21:32.315Z,1.33
2023-11-05T02:24:02.029Z,1.37
2023-11-05T02:26:28.732Z,1.33
2023-11-05T02:29:00.863Z,1.40
2023-11-05T02:31:34.065Z,1.40
2023-11-05T02:34:01.952Z,1.67
2023-11-05T02:36:29.154Z,1.77
2023-11-05T02:39:01.752Z,1.53
2023-11-05T02:41:28.443Z,1.40
2023-11-05T02:43:58.126Z,1.63
2023-11-05T02:46:30.183Z,1.43
2023-11-05T02:49:00.106Z,1.40
2023-11-05T02:51:26.865Z,1.60
2023-11-05T02:54:05.947Z,1.50
2023-11-05T02:56:32.678Z,1.40
2023-11-05T02:58:59.532Z,1.30
2023-11-05T03:01:37.629Z,1.73
2023-11-05T03:04:04.651Z,1.50
2023-11-05T03:06:31.388Z,1.33
2023-11-05T03:09:07.026Z,1.40
2023-11-05T03:11:33.957Z,1.67
2023-11-05T03:14:00.712Z,1.90
2023-11-05T03:16:39.663Z,1.93
2023-11-05T03:19:07.409Z,1.70
2023-11-05T03:21:34.208Z,1.90
2023-11-05T03:24:08.872Z,1.73
2023-11-05T03:26:36.157Z,1.70
2023-11-05T03:29:02.975Z,2.00
2023-11-05T03:31:41.793Z,1.70
2023-11-05T03:34:08.978Z,1.77
2023-11-05T03:36:35.997Z,1.90
2023-11-05T03:39:10.551Z,1.97
2023-11-05T03:41:37.209Z,1.40
2023-11-05T03:44:05.206Z,1.73
2023-11-05T03:46:42.266Z,1.60
2023-11-05T03:49:09.746Z,1.53
2023-11-05T03:51:36.634Z,1.93
2023-11-05T03:54:16.931Z,1.50
2023-11-05T03:56:44.070Z,1.67
2023-11-05T03:59:11.815Z,1.60
2023-11-05T04:01:41.887Z,1.60
2023-11-05T04:04:11.893Z,2.10
2023-11-05T04:06:41.414Z,1.60
2023-11-05T04:09:13.617Z,1.53
2023-11-05T04:11:40.340Z,1.90
2023-11-05T04:14:07.113Z,1.80
2023-11-05T04:16:34.027Z,1.80
2023-11-05T04:19:06.817Z,1.60
2023-11-05T04:21:33.534Z,1.80
2023-11-05T04:24:00.204Z,1.60
2023-11-05T04:26:29.281Z,1.40
2023-11-05T04:29:03.414Z,1.70
2023-11-05T04:31:30.233Z,1.40
2023-11-05T04:33:59.143Z,1.50
2023-11-05T04:36:47.242Z,1.60
2023-11-05T04:39:21.154Z,1.80
2023-11-05T04:41:50.764Z,1.50
2023-11-05T04:44:17.821Z,1.60
2023-11-05T04:46:50.116Z,1.67
2023-11-05T04:49:17.052Z,1.67
2023-11-05T04:51:46.689Z,1.90
2023-11-05T04:54:19.275Z,1.40
2023-11-05T04:56:46.178Z,1.80
2023-11-05T04:59:12.909Z,1.60
2023-11-05T05:01:58.551Z,1.57
2023-11-05T05:04:33.113Z,1.47
2023-11-05T05:07:00.115Z,1.23
2023-11-05T05:09:26.995Z,1.50
2023-11-05T05:11:53.707Z,1.63
2023-11-05T05:14:20.435Z,1.40
2023-11-05T05:16:53.444Z,1.53
2023-11-05T05:19:20.604Z,1.40
2023-11-05T05:21:49.788Z,1.63
2023-11-05T05:24:25.999Z,1.30
2023-11-05T05:26:52.753Z,1.40
2023-11-05T05:29:19.499Z,1.57
2023-11-05T05:31:55.236Z,1.60
2023-11-05T05:34:22.224Z,1.47
2023-11-05T05:36:49.177Z,1.30
2023-11-05T05:39:26.113Z,1.40
2023-11-05T05:41:52.932Z,1.47
2023-11-05T05:44:22.372Z,1.43
2023-11-05T05:46:58.600Z,1.57
2023-11-05T05:49:25.441Z,1.70
2023-11-05T05:51:52.282Z,1.63
2023-11-05T05:54:26.183Z,1.50
2023-11-05T05:56:52.902Z,1.60
2023-11-05T05:59:19.545Z,1.70
2023-11-05T06:01:46.341Z,1.87
2023-11-05T06:04:13.206Z,1.40
2023-11-05T06:06:43.985Z,1.73
2023-11-05T06:09:13.602Z,1.40
2023-11-05T06:11:40.374Z,1.40
2023-11-05T06:14:26.781Z,1.37
2023-11-05T06:17:02.481Z,1.40
2023-11-05T06:19:29.217Z,1.50
2023-11-05T06:21:55.911Z,1.60
2023-11-05T06:24:31.737Z,1.70
2023-11-05T06:26:58.913Z,1.60
2023-11-05T06:29:25.598Z,1.50
2023-11-05T06:32:02.567Z,1.40
2023-11-05T06:34:29.357Z,1.50
2023-11-05T06:37:01.054Z,1.50
2023-11-05T06:39:35.071Z,1.60
2023-11-05T06:42:03.752Z,1.30
2023-11-05T06:44:34.701Z,1.50
2023-11-05T06:47:04.654Z,1.30
2023-11-05T06:49:31.391Z,1.47
2023-11-05T06:51:58.093Z,1.30
2023-11-05T06:54:24.801Z,1.30
2023-11-05T06:56:54.033Z,1.30
2023-11-05T06:59:25.015Z,1.30
2023-11-05T07:01:52.086Z,1.30
2023-11-05T07:04:22.287Z,1.30
2023-11-05T07:06:52.240Z,1.40
2023-11-05T07:09:19.231Z,1.20
2023-11-05T07:12:25.828Z,1.20
2023-11-05T07:44:28.079Z,1.00
2023-11-05T07:46:54.918Z,0.90
2023-11-05T07:49:26.302Z,1.20
2023-11-05T07:51:58.327Z,1.00
2023-11-05T07:54:25.058Z,0.97
2023-11-05T07:56:54.575Z,0.90
2023-11-05T07:59:32.955Z,1.03
2023-11-05T08:01:59.795Z,1.17
2023-11-05T08:04:31.315Z,0.97
2023-11-05T08:07:01.108Z,1.00
2023-11-05T08:09:27.863Z,1.00
2023-11-05T08:11:54.615Z,1.00
2023-11-05T08:14:30.272Z,1.00
2023-11-05T08:16:56.932Z,1.00
2023-11-05T08:19:23.999Z,1.10
2023-11-05T08:21:50.713Z,1.00
2023-11-05T08:24:19.409Z,1.10
2023-11-05T08:26:52.436Z,1.17
2023-11-05T08:29:20.059Z,1.10
2023-11-05T08:31:55.174Z,0.87
2023-11-05T08:34:21.937Z,1.20
2023-11-05T08:36:48.635Z,1.10
2023-11-05T08:39:20.552Z,1.50
2023-11-05T08:41:50.986Z,1.10
2023-11-05T08:44:19.527Z,1.40
2023-11-05T08:46:49.109Z,1.07
2023-11-05T08:49:26.118Z,1.10
2023-11-05T08:51:56.676Z,1.10
2023-11-05T08:54:25.760Z,1.30
2023-11-05T08:56:52.649Z,1.20
2023-11-05T08:59:22.214Z,1.37
2023-11-05T09:01:53.414Z,1.27
2023-11-05T09:04:23.137Z,1.00
2023-11-05T09:06:56.071Z,0.90
2023-11-05T09:09:23.501Z,1.20
2023-11-05T09:11:57.871Z,1.20
2023-11-05T09:14:24.558Z,1.10
2023-11-05T09:16:52.202Z,1.13
2023-11-05T09:19:29.102Z,1.10
2023-11-05T09:21:56.094Z,0.97
2023-11-05T09:24:22.866Z,1.10
2023-11-05T09:27:00.085Z,1.10
2023-11-05T09:29:26.960Z,1.37
2023-11-05T09:31:53.948Z,1.07
2023-11-05T09:34:31.517Z,1.00
2023-11-05T09:36:58.350Z,0.90
2023-11-05T09:39:28.785Z,1.00
2023-11-05T09:42:04.524Z,1.10
2023-11-05T09:44:31.257Z,1.10
2023-11-05T09:47:00.259Z,1.03
2023-11-05T09:49:30.067Z,1.00
2023-11-05T09:51:56.740Z,0.90
2023-11-05T09:54:23.406Z,0.80
2023-11-05T09:56:50.667Z,0.83
2023-11-05T09:59:17.493Z,0.80
2023-11-05T10:01:53.393Z,0.80
2023-11-05T10:04:21.701Z,1.10
2023-11-05T10:07:07.899Z,0.97
2023-11-05T10:09:47.858Z,1.00
2023-11-05T10:12:14.760Z,0.80
2023-11-05T10:14:49.049Z,1.00
2023-11-05T10:17:18.920Z,0.90
2023-11-05T10:19:48.530Z,0.93
2023-11-05T10:22:16.525Z,0.80
2023-11-05T10:24:49.508Z,1.20
2023-11-05T10:27:30.931Z,1.10
2023-11-05T10:29:58.114Z,1.20
2023-11-05T10:32:25.189Z,1.00
2023-11-05T10:34:57.112Z,0.93
2023-11-05T10:45:17.770Z,1.00
2023-11-05T10:47:59.659Z,0.90
2023-11-05T11:04:35.562Z,1.00
2023-11-05T11:11:15.835Z,1.17
2023-11-05T11:13:50.432Z,1.13
2023-11-05T11:16:31.607Z,1.20
2023-11-05T11:19:23.546Z,1.20
2023-11-05T11:21:56.732Z,1.20
2023-11-05T11:24:46.947Z,1.33
2023-11-05T11:27:19.277Z,1.43
2023-11-05T11:29:47.057Z,1.30
2023-11-05T11:32:19.684Z,1.97
2023-11-05T11:34:50.098Z,1.50
2023-11-05T11:52:22.655Z,1.90
2023-11-05T11:54:50.160Z,1.73
2023-11-05T11:57:21.174Z,1.90
2023-11-05T11:59:53.147Z,2.30
2023-11-05T12:02:22.554Z,2.10
2023-11-05T12:04:53.695Z,2.47
2023-11-05T12:07:20.483Z,2.30
2023-11-05T12:09:47.364Z,1.80
2023-11-05T12:12:18.859Z,3.20
2023-11-05T12:14:53.995Z,2.20
2023-11-05T12:17:20.827Z,3.50
2023-11-05T12:19:55.185Z,3.30
2023-11-05T12:22:23.773Z,3.97
2023-11-05T12:24:50.825Z,2.20
2023-11-05T12:27:47.124Z,2.30
2023-11-05T12:34:25.401Z,2.60
2023-11-05T12:41:19.757Z,2.43
2023-11-05T12:54:03.321Z,3.00
2023-11-05T13:02:37.960Z,2.93
2023-11-05T13:05:07.663Z,3.57
2023-11-05T13:07:55.070Z,2.80
2023-11-05T13:10:27.774Z,2.90
2023-11-05T13:14:37.528Z,3.43
2023-11-05T13:24:50.486Z,3.50
2023-11-05T13:27:17.345Z,3.50
2023-11-05T13:29:51.626Z,3.10
2023-11-05T13:32:20.956Z,2.90
2023-11-05T13:34:47.941Z,3.10
2023-11-05T13:37:20.177Z,3.37
2023-11-05T13:39:51.256Z,3.13
2023-11-05T13:42:28.700Z,2.80
2023-11-05T13:45:00.171Z,2.80
2023-11-05T13:47:29.209Z,3.00
2023-11-05T13:50:06.124Z,3.00
2023-11-05T13:52:36.132Z,2.97
2023-11-05T13:55:06.681Z,2.80
2023-11-05T13:57:36.412Z,2.93
2023-11-05T14:00:05.449Z,2.93
2023-11-05T14:02:32.244Z,2.90
2023-11-05T14:05:06.758Z,3.63
2023-11-05T14:07:33.985Z,4.53
2023-11-05T14:10:12.112Z,3.53
2023-11-05T14:12:39.000Z,3.40
2023-11-05T14:15:06.883Z,3.60
2023-11-05T14:17:34.167Z,3.60
2023-11-05T14:20:08.229Z,3.90
2023-11-05T14:22:34.941Z,3.83
2023-11-05T14:25:01.731Z,4.00
2023-11-05T14:27:28.451Z,4.40
2023-11-05T14:29:57.744Z,4.40
2023-11-05T14:32:27.652Z,4.20
2023-11-05T14:34:57.064Z,4.53
2023-11-05T14:37:24.368Z,4.77
2023-11-05T14:39:58.594Z,4.00
2023-11-05T14:42:29.029Z,3.90
2023-11-05T14:44:56.213Z,3.97
2023-11-05T14:47:32.038Z,3.40
2023-11-05T14:50:18.089Z,3.87
2023-11-05T14:52:44.864Z,3.50
2023-11-05T14:55:11.980Z,3.70
2023-11-05T14:57:47.859Z,3.00
2023-11-05T15:00:32.430Z,4.00
2023-11-05T15:02:59.479Z,3.30
2023-11-05T15:05:40.913Z,3.50
2023-11-05T15:08:10.801Z,3.87
2023-11-05T15:10:46.648Z,3.50
2023-11-05T15:13:13.904Z,3.80
2023-11-05T15:15:43.525Z,3.93
2023-11-05T15:18:13.071Z,4.37
2023-11-05T15:20:39.872Z,3.73
2023-11-05T15:27:34.403Z,4.13
2023-11-05T15:30:38.627Z,5.13
2023-11-05T15:50:18.784Z,4.30
2023-11-05T16:01:40.094Z,4.47
2023-11-05T16:04:08.036Z,4.73
2023-11-05T16:06:43.395Z,4.30
2023-11-05T16:29:36.453Z,4.53
2023-11-05T16:32:28.731Z,3.30
2023-11-05T16:52:03.279Z,4.27
2023-11-05T16:54:57.289Z,4.33
2023-11-05T17:02:11.523Z,5.67
2023-11-05T17:07:23.555Z,4.40
2023-11-05T17:09:51.272Z,4.17
2023-11-05T17:12:22.206Z,4.53
2023-11-05T17:14:51.611Z,4.33
2023-11-05T17:17:20.267Z,3.97
2023-11-05T17:19:51.904Z,4.00
2023-11-05T17:22:22.341Z,3.93
2023-11-05T17:24:53.084Z,4.20
2023-11-05T17:27:22.813Z,4.57
2023-11-05T17:29:53.746Z,4.40
2023-11-05T17:32:21.285Z,3.93
2023-11-05T17:35:13.795Z,4.40
2023-11-05T17:37:40.929Z,4.30
2023-11-05T17:40:20.848Z,4.97
2023-11-05T17:42:47.870Z,5.37
2023-11-05T17:45:14.723Z,4.93
2023-11-05T17:47:53.802Z,5.10
2023-11-05T17:50:20.875Z,4.90
2023-11-05T17:52:47.813Z,4.87
2023-11-05T17:55:23.462Z,5.40
2023-11-05T17:57:51.179Z,4.90
2023-11-05T18:00:20.745Z,5.70
2023-11-05T18:02:57.498Z,4.80
2023-11-05T18:08:10.369Z,4.53
2023-11-05T18:10:50.675Z,4.53
2023-11-05T18:13:21.703Z,5.07
2023-11-05T18:15:53.803Z,4.93
2023-11-05T18:18:38.298Z,5.13
2023-11-05T18:21:05.486Z,4.80
2023-11-05T18:23:32.233Z,4.50
2023-11-05T18:26:05.703Z,4.53
2023-11-05T18:28:33.535Z,5.30
2023-11-05T18:31:00.230Z,4.37
2023-11-05T18:33:29.186Z,4.80
2023-11-05T18:35:55.982Z,4.00
2023-11-05T18:38:49.229Z,4.60
2023-11-05T18:41:18.757Z,4.50
2023-11-05T18:44:01.457Z,12.80
2023-11-05T18:46:41.859Z,4.70
2023-11-05T18:49:08.996Z,4.50
2023-11-05T18:51:51.758Z,4.50
2023-11-05T18:54:21.772Z,4.90
2023-11-05T19:06:41.521Z,5.43
2023-11-05T19:09:12.343Z,5.30
2023-11-05T19:11:41.195Z,5.43
2023-11-05T19:25:04.213Z,5.83
2023-11-05T19:36:55.125Z,6.20
2023-11-05T20:03:23.870Z,5.00
2023-11-05T20:42:15.778Z,4.13
2023-11-05T20:44:59.828Z,4.27
2023-11-05T20:47:37.281Z,4.40
2023-11-05T20:52:50.700Z,4.40
2023-11-05T20:55:20.028Z,4.10
2023-11-05T20:57:53.204Z,5.80
2023-11-05T21:00:35.657Z,4.40
2023-11-05T21:03:03.279Z,3.60
2023-11-05T21:05:47.638Z,3.33
2023-11-05T21:08:23.438Z,3.37
2023-11-05T21:10:56.448Z,3.30
2023-11-05T21:14:38.888Z,3.20
2023-11-05T21:17:40.728Z,3.07
2023-11-05T21:23:58.511Z,3.47
2023-11-05T21:30:11.346Z,3.87
2023-11-05T21:32:53.140Z,4.10
2023-11-05T21:35:57.728Z,3.90
2023-11-05T21:38:35.263Z,4.40
2023-11-05T21:41:33.907Z,4.80
2023-11-05T21:44:07.064Z,4.50
2023-11-05T21:50:49.150Z,3.70
2023-11-05T21:53:33.121Z,4.20
2023-11-05T21:56:10.161Z,4.83
2023-11-05T21:59:04.414Z,4.17
2023-11-05T22:04:24.866Z,3.40
2023-11-05T22:07:45.386Z,4.73
2023-11-05T22:10:18.928Z,4.13
2023-11-05T22:12:45.552Z,3.83
2023-11-05T22:15:14.412Z,3.60
2023-11-05T22:17:51.303Z,3.60
2023-11-05T22:20:18.264Z,3.50
2023-11-05T22:22:45.007Z,3.93
2023-11-05T22:25:19.031Z,3.60
2023-11-05T22:27:45.760Z,3.57
2023-11-05T22:30:12.831Z,3.57
2023-11-05T22:32:40.373Z,3.23
2023-11-05T22:35:08.008Z,3.53
2023-11-05T22:37:37.375Z,3.60
2023-11-05T22:40:05.298Z,3.10
2023-11-05T22:42:32.157Z,3.57
2023-11-05T22:44:58.823Z,3.00
2023-11-05T22:47:26.403Z,3.10
2023-11-05T22:49:55.556Z,2.93
2023-11-05T22:52:22.217Z,2.70
2023-11-05T22:54:49.071Z,3.13
2023-11-05T22:57:18.036Z,2.60
2023-11-05T22:59:50.863Z,2.93
2023-11-05T23:02:20.655Z,2.93
2023-11-05T23:04:57.734Z,3.00
2023-11-05T23:07:24.436Z,2.80
2023-11-05T23:09:51.285Z,2.87
2023-11-05T23:12:17.946Z,3.03
2023-11-05T23:14:44.757Z,2.63
2023-11-05T23:17:29.165Z,2.80
2023-11-05T23:20:01.277Z,3.20
2023-11-05T23:22:27.984Z,3.10
2023-11-05T23:24:55.475Z,2.93
2023-11-05T23:27:22.267Z,3.43
2023-11-05T23:29:51.200Z,3.50
2023-11-05T23:32:26.903Z,3.47
2023-11-05T23:34:53.675Z,3.50
2023-11-05T23:37:22.627Z,4.03
2023-11-05T23:39:49.460Z,4.30
2023-11-05T23:42:19.400Z,3.93
2023-11-05T23:44:53.354Z,4.07
2023-11-05T23:47:21.188Z,3.80
2023-11-05T23:49:50.417Z,3.60
2023-11-05T23:52:20.168Z,4.03
2023-11-05T23:54:49.844Z,3.73
2023-11-05T23:57:18.655Z,3.30
2023-11-05T23:59:45.341Z,3.63
